Time;durP1;ratioP1;P1;durP2;ratioP2;P2;SDS_P1;SDS_P2;PMS_P1;PMS_P2;Temp;Humidity;BMP_temperature;BMP_pressure;BME280_temperature;BME280_humidity;BME280_pressure;Samples;Min_cycle;Max_cycle;Signal;HPM_P1;HPM_P2
2023/05/10 00:02:06;;;;;;;3.20;1.90;;;14.40;99.90;;;;;;5093128;28;20239;-90
2023/05/10 00:04:32;;;;;;;1.70;1.60;;;14.40;99.90;;;;;;5093825;28;20686;-89
2023/05/10 00:06:58;;;;;;;1.70;1.60;;;14.40;99.90;;;;;;5093566;28;20198;-89
2023/05/10 00:09:23;;;;;;;1.70;1.60;;;14.50;99.90;;;;;;5094160;28;20296;-92
2023/05/10 00:11:49;;;;;;;1.50;1.50;;;14.40;99.90;;;;;;5107081;28;20196;-89
2023/05/10 00:14:14;;;;;;;1.63;1.50;;;14.30;99.90;;;;;;5114036;28;20198;-89
2023/05/10 00:16:40;;;;;;;1.97;1.63;;;14.40;99.90;;;;;;5115453;28;20178;-90
2023/05/10 00:19:06;;;;;;;2.07;1.70;;;14.30;99.90;;;;;;5115287;28;20681;-89
2023/05/10 00:21:33;;;;;;;1.80;1.60;;;14.40;99.90;;;;;;5094511;28;20716;-89
2023/05/10 00:23:59;;;;;;;2.00;1.80;;;14.40;99.90;;;;;;5094794;28;20207;-89
2023/05/10 00:26:25;;;;;;;1.70;1.60;;;14.50;99.90;;;;;;5095325;28;20567;-89
2023/05/10 00:28:50;;;;;;;2.07;1.70;;;14.60;99.90;;;;;;5108592;28;20670;-90
2023/05/10 00:31:16;;;;;;;1.70;1.60;;;14.50;99.90;;;;;;5109402;28;20189;-91
2023/05/10 00:33:41;;;;;;;1.90;1.80;;;14.50;99.90;;;;;;5110205;28;20202;-89
2023/05/10 00:36:07;;;;;;;1.60;1.60;;;14.50;99.90;;;;;;5115723;28;20189;-88
2023/05/10 00:38:33;;;;;;;1.90;1.80;;;14.40;99.90;;;;;;5116135;28;20206;-89
2023/05/10 00:40:59;;;;;;;2.60;1.80;;;14.40;99.90;;;;;;5115932;28;20228;-89
2023/05/10 00:43:24;;;;;;;2.00;1.90;;;14.30;99.90;;;;;;5119748;28;20200;-88
2023/05/10 00:45:50;;;;;;;3.07;1.80;;;14.20;99.90;;;;;;5117661;28;20247;-92
2023/05/10 00:48:16;;;;;;;1.80;1.70;;;14.20;99.90;;;;;;5119101;28;20183;-89
2023/05/10 00:50:42;;;;;;;1.90;1.80;;;14.20;99.90;;;;;;5119208;28;20257;-88
2023/05/10 00:53:08;;;;;;;2.37;2.20;;;14.20;99.90;;;;;;5117601;28;20193;-89
2023/05/10 00:55:34;;;;;;;2.00;1.90;;;14.20;99.90;;;;;;5117844;28;20542;-88
2023/05/10 00:58:01;;;;;;;2.07;1.97;;;14.30;99.90;;;;;;5117351;28;20184;-89
2023/05/10 01:00:26;;;;;;;2.10;2.00;;;14.20;99.90;;;;;;5116472;28;20598;-89
2023/05/10 01:02:53;;;;;;;2.10;2.00;;;14.40;99.90;;;;;;5102935;28;20767;-90
2023/05/10 01:05:19;;;;;;;2.20;2.10;;;14.30;99.90;;;;;;5099901;28;20226;-88
2023/05/10 01:07:45;;;;;;;2.93;2.10;;;14.30;99.90;;;;;;5098225;28;20179;-89
2023/05/10 01:10:11;;;;;;;2.30;2.20;;;14.30;99.90;;;;;;5098351;28;20654;-91
2023/05/10 01:12:40;;;;;;;2.07;1.97;;;14.20;99.90;;;;;;5097448;28;20609;-89
2023/05/10 01:15:08;;;;;;;2.10;2.00;;;14.20;99.90;;;;;;5097696;28;20192;-91
2023/05/10 01:17:35;;;;;;;3.00;2.10;;;14.20;99.90;;;;;;5099810;28;21815;-88
2023/05/10 01:20:01;;;;;;;2.40;2.13;;;14.30;99.90;;;;;;5110548;28;20183;-90
2023/05/10 01:22:42;;;;;;;2.43;2.23;;;14.20;99.90;;;;;;5098891;28;20196;-89
2023/05/10 01:25:13;;;;;;;2.10;2.00;;;14.20;99.90;;;;;;5099100;28;20200;-91
2023/05/10 01:27:51;;;;;;;2.50;2.33;;;14.20;99.90;;;;;;5102979;28;20181;-90
2023/05/10 01:30:51;;;;;;;2.50;2.30;;;14.30;99.90;;;;;;5117877;28;20570;-89
2023/05/10 01:33:25;;;;;;;2.33;2.10;;;14.30;99.90;;;;;;5118529;28;20559;-88
2023/05/10 01:36:01;;;;;;;2.40;2.30;;;14.30;99.90;;;;;;5118079;28;20204;-89
2023/05/10 01:38:35;;;;;;;4.23;2.40;;;14.30;99.90;;;;;;5118008;28;20174;-88
2023/05/10 01:41:18;;;;;;;3.50;2.50;;;14.30;99.90;;;;;;5106962;28;20180;-89
2023/05/10 01:44:05;;;;;;;2.67;2.47;;;14.20;99.90;;;;;;5098410;28;20242;-89
2023/05/10 01:46:38;;;;;;;2.67;2.40;;;14.20;99.90;;;;;;5110104;28;20180;-88
2023/05/10 01:49:09;;;;;;;2.80;2.30;;;14.20;99.90;;;;;;5117208;28;20209;-89
2023/05/10 01:52:07;;;;;;;2.70;2.50;;;14.20;99.90;;;;;;5116341;28;20168;-89
2023/05/10 01:54:35;;;;;;;2.67;2.47;;;14.30;99.90;;;;;;5115980;28;20184;-88
2023/05/10 01:57:07;;;;;;;2.70;2.50;;;14.30;99.90;;;;;;5114784;28;20197;-88
2023/05/10 01:59:36;;;;;;;3.60;2.90;;;14.30;99.90;;;;;;5118988;28;20180;-88
2023/05/10 02:02:04;;;;;;;2.90;2.70;;;14.40;99.90;;;;;;5119277;28;20549;-87
2023/05/10 02:04:30;;;;;;;3.40;3.17;;;14.40;99.90;;;;;;5121948;28;20224;-91
2023/05/10 02:06:57;;;;;;;3.23;2.70;;;14.40;99.90;;;;;;5121875;28;20163;-89
2023/05/10 02:09:24;;;;;;;3.30;3.10;;;14.40;99.90;;;;;;5117747;28;20264;-87
2023/05/10 02:11:50;;;;;;;4.17;3.00;;;14.40;99.90;;;;;;5116052;28;20171;-90
2023/05/10 02:14:17;;;;;;;3.20;3.00;;;14.40;99.90;;;;;;5111883;28;20288;-91
2023/05/10 02:16:44;;;;;;;3.03;2.83;;;14.40;99.90;;;;;;5102841;28;20191;-88
2023/05/10 02:19:11;;;;;;;3.30;3.10;;;14.40;99.90;;;;;;5098169;28;20272;-90
2023/05/10 02:21:39;;;;;;;3.60;3.30;;;14.40;99.90;;;;;;5096556;28;20239;-88
2023/05/10 02:24:06;;;;;;;3.30;3.10;;;14.30;99.90;;;;;;5105135;28;20201;-91
2023/05/10 02:26:35;;;;;;;3.83;3.30;;;14.30;99.90;;;;;;5096901;28;20175;-87
2023/05/10 02:29:03;;;;;;;3.47;3.27;;;14.30;99.90;;;;;;5097439;28;20180;-89
2023/05/10 02:31:31;;;;;;;3.83;3.53;;;14.30;99.90;;;;;;5098975;28;20561;-88
2023/05/10 02:33:58;;;;;;;4.10;3.70;;;14.30;99.90;;;;;;5098409;28;20193;-89
2023/05/10 02:36:27;;;;;;;4.07;3.77;;;14.40;99.90;;;;;;5098960;28;20612;-89
2023/05/10 02:38:53;;;;;;;4.17;3.87;;;14.40;99.90;;;;;;5096783;28;20667;-89
2023/05/10 02:41:22;;;;;;;3.60;3.40;;;14.30;99.90;;;;;;5097079;28;20293;-91
2023/05/10 02:43:50;;;;;;;3.90;3.50;;;14.40;99.90;;;;;;5097495;28;20699;-88
2023/05/10 02:46:16;;;;;;;3.70;3.40;;;14.50;99.90;;;;;;5095890;28;20510;-89
2023/05/10 02:48:41;;;;;;;3.97;3.67;;;14.40;99.90;;;;;;5108463;28;20185;-88
2023/05/10 02:51:08;;;;;;;3.87;3.60;;;14.40;99.90;;;;;;5095919;28;20623;-89
2023/05/10 02:53:36;;;;;;;3.40;3.20;;;14.40;99.90;;;;;;5095269;28;20451;-89
2023/05/10 02:56:07;;;;;;;3.90;3.60;;;14.40;99.90;;;;;;5094895;28;20212;-90
2023/05/10 02:58:33;;;;;;;3.70;3.40;;;14.30;99.90;;;;;;5094517;28;20195;-89
2023/05/10 03:01:00;;;;;;;3.63;3.43;;;14.30;99.90;;;;;;5094162;28;20206;-89
2023/05/10 03:03:26;;;;;;;4.43;4.03;;;14.20;99.90;;;;;;5094711;28;20454;-88
2023/05/10 03:05:55;;;;;;;3.90;3.60;;;14.20;99.90;;;;;;5095532;28;20203;-89
2023/05/10 03:08:21;;;;;;;3.90;3.60;;;14.10;99.90;;;;;;5095980;28;20233;-90
2023/05/10 03:11:23;;;;;;;3.97;3.60;;;14.10;99.90;;;;;;5095449;28;20187;-88
2023/05/10 03:14:21;;;;;;;4.37;3.97;;;14.10;99.90;;;;;;5082101;28;20280;-87
2023/05/10 03:16:56;;;;;;;4.10;3.70;;;14.00;99.90;;;;;;5057578;28;20233;-88
2023/05/10 03:19:34;;;;;;;3.93;3.63;;;14.10;99.90;;;;;;5098226;28;20190;-89
2023/05/10 03:22:08;;;;;;;4.13;3.83;;;14.00;99.90;;;;;;5103903;28;20748;-86
2023/05/10 03:24:35;;;;;;;4.40;4.00;;;14.00;99.90;;;;;;5095642;28;20258;-89
2023/05/10 03:27:04;;;;;;;3.70;3.50;;;14.10;99.90;;;;;;5096070;28;20169;-90
2023/05/10 03:29:30;;;;;;;4.50;4.10;;;14.00;99.90;;;;;;5096515;28;20262;-88
2023/05/10 03:31:59;;;;;;;4.50;3.70;;;13.90;99.90;;;;;;5095421;28;20223;-87
2023/05/10 03:34:25;;;;;;;4.13;3.77;;;13.90;99.90;;;;;;5096572;28;20219;-89
2023/05/10 03:36:51;;;;;;;3.90;3.60;;;13.80;99.90;;;;;;5101724;28;20182;-89
2023/05/10 03:39:16;;;;;;;3.93;3.63;;;13.90;99.90;;;;;;5115472;28;20267;-88
2023/05/10 03:41:42;;;;;;;3.60;3.40;;;13.80;99.90;;;;;;5116110;27;20176;-89
2023/05/10 03:44:07;;;;;;;4.10;3.73;;;13.80;99.90;;;;;;5108508;28;20195;-88
2023/05/10 03:46:33;;;;;;;4.07;3.73;;;13.90;99.90;;;;;;5093863;28;20710;-89
2023/05/10 03:48:59;;;;;;;3.90;3.60;;;13.80;99.90;;;;;;5094208;28;20207;-88
2023/05/10 03:51:27;;;;;;;3.70;3.40;;;13.90;99.90;;;;;;5093272;28;20177;-89
2023/05/10 03:53:56;;;;;;;4.07;3.77;;;13.80;99.90;;;;;;5103691;28;20190;-90
2023/05/10 03:56:22;;;;;;;3.97;3.57;;;13.90;99.90;;;;;;5113381;28;20173;-89
2023/05/10 03:58:47;;;;;;;4.07;3.60;;;13.80;99.90;;;;;;5095697;28;20210;-88
2023/05/10 04:01:13;;;;;;;3.90;3.50;;;13.70;99.90;;;;;;5094487;28;20179;-89
2023/05/10 04:03:39;;;;;;;3.67;3.37;;;13.70;99.90;;;;;;5093654;28;20198;-88
2023/05/10 04:06:05;;;;;;;3.77;3.47;;;13.80;99.90;;;;;;5093301;28;20283;-90
2023/05/10 04:08:31;;;;;;;3.50;3.27;;;13.80;99.90;;;;;;5105288;28;20606;-91
2023/05/10 04:11:12;;;;;;;5.30;3.33;;;13.80;99.90;;;;;;5113487;28;20200;-92
2023/05/10 04:13:38;;;;;;;5.03;3.47;;;13.90;99.90;;;;;;5107865;28;20253;-88
2023/05/10 04:16:04;;;;;;;3.50;3.20;;;13.90;99.90;;;;;;5104899;28;20188;-88
2023/05/10 04:18:31;;;;;;;3.90;3.50;;;14.00;99.90;;;;;;5116429;28;20177;-89
2023/05/10 04:20:56;;;;;;;3.43;3.20;;;13.90;99.90;;;;;;5100409;28;20696;-86
2023/05/10 04:23:22;;;;;;;3.40;3.10;;;13.90;99.90;;;;;;5100967;28;20219;-90
2023/05/10 04:25:48;;;;;;;3.33;3.13;;;14.00;99.90;;;;;;5116557;28;20198;-90
2023/05/10 04:28:13;;;;;;;3.07;2.87;;;14.00;99.90;;;;;;5110178;28;20655;-89
2023/05/10 04:30:40;;;;;;;3.00;2.80;;;13.90;99.90;;;;;;5109937;28;20204;-88
2023/05/10 04:33:05;;;;;;;3.40;3.10;;;14.00;99.90;;;;;;5116728;28;20206;-88
2023/05/10 04:35:31;;;;;;;3.10;2.90;;;14.10;99.90;;;;;;5115590;28;20677;-89
2023/05/10 04:37:57;;;;;;;3.27;3.07;;;14.10;99.90;;;;;;5115545;28;20190;-87
2023/05/10 04:40:22;;;;;;;5.47;4.67;;;14.20;99.90;;;;;;5118160;28;20166;-89
2023/05/10 04:42:48;;;;;;;3.33;3.13;;;14.20;99.90;;;;;;5115298;28;20659;-88
2023/05/10 04:45:16;;;;;;;3.43;3.13;;;14.10;99.90;;;;;;5117024;28;20198;-87
2023/05/10 04:47:42;;;;;;;5.03;3.53;;;14.20;99.90;;;;;;5105944;28;20532;-89
2023/05/10 04:50:08;;;;;;;5.63;3.47;;;14.20;99.90;;;;;;5095530;28;20255;-87
2023/05/10 04:52:34;;;;;;;3.80;3.60;;;14.10;99.90;;;;;;5095844;28;20197;-87
2023/05/10 04:54:59;;;;;;;4.30;4.00;;;14.20;99.90;;;;;;5096672;28;20187;-89
2023/05/10 04:57:25;;;;;;;4.40;3.70;;;14.10;99.90;;;;;;5096329;28;20198;-90
2023/05/10 04:59:51;;;;;;;4.63;4.23;;;14.00;99.90;;;;;;5106026;28;20187;-88
2023/05/10 05:02:16;;;;;;;4.70;4.20;;;14.00;99.90;;;;;;5117710;28;20187;-90
2023/05/10 05:04:42;;;;;;;4.33;3.93;;;14.10;99.90;;;;;;5108420;28;20212;-90
2023/05/10 05:07:07;;;;;;;6.17;3.53;;;14.10;99.90;;;;;;5095014;28;20183;-89
2023/05/10 05:09:33;;;;;;;4.20;3.80;;;14.10;99.90;;;;;;5114402;28;20184;-89
2023/05/10 05:11:59;;;;;;;4.20;3.90;;;14.10;99.90;;;;;;5100466;28;20261;-90
2023/05/10 05:14:25;;;;;;;4.07;3.77;;;14.10;99.90;;;;;;5101183;28;20187;-87
2023/05/10 05:16:51;;;;;;;4.27;3.97;;;14.20;99.90;;;;;;5095396;28;20263;-88
2023/05/10 05:19:17;;;;;;;4.27;3.73;;;14.10;99.90;;;;;;5095630;28;20414;-89
2023/05/10 05:21:43;;;;;;;5.53;3.70;;;14.00;99.90;;;;;;5102256;28;20181;-89
2023/05/10 05:24:09;;;;;;;4.50;4.03;;;14.00;99.90;;;;;;5094963;28;20528;-89
2023/05/10 05:26:36;;;;;;;4.03;3.73;;;14.00;99.90;;;;;;5097010;28;20172;-88
2023/05/10 05:29:02;;;;;;;7.17;3.90;;;14.00;99.90;;;;;;5116574;28;20667;-90
2023/05/10 05:31:28;;;;;;;3.90;3.53;;;14.00;99.90;;;;;;5110682;28;20261;-89
2023/05/10 05:33:55;;;;;;;5.20;3.63;;;14.00;99.90;;;;;;5099168;28;20204;-87
2023/05/10 05:36:20;;;;;;;4.53;3.60;;;14.10;99.90;;;;;;5097176;28;20171;-92
2023/05/10 05:38:46;;;;;;;3.60;3.30;;;14.10;99.90;;;;;;5096605;28;20667;-88
2023/05/10 05:41:12;;;;;;;7.17;3.37;;;14.20;99.90;;;;;;5110262;28;20389;-88
2023/05/10 05:43:37;;;;;;;3.40;3.17;;;14.20;99.90;;;;;;5109335;28;20732;-90
2023/05/10 05:46:03;;;;;;;3.77;3.30;;;14.30;99.90;;;;;;5116264;28;20232;-91
2023/05/10 05:48:30;;;;;;;3.17;2.87;;;14.30;99.90;;;;;;5118048;28;20192;-89
2023/05/10 05:50:56;;;;;;;3.23;2.93;;;14.30;99.90;;;;;;5118899;27;20182;-90
2023/05/10 05:53:23;;;;;;;3.40;3.10;;;14.30;99.90;;;;;;5117755;28;20218;-90
2023/05/10 05:55:53;;;;;;;5.60;3.23;;;14.30;99.90;;;;;;5116167;28;20184;-89
2023/05/10 05:58:18;;;;;;;2.80;2.60;;;14.30;99.90;;;;;;5117990;28;20238;-90
2023/05/10 06:00:44;;;;;;;3.33;2.93;;;14.20;99.90;;;;;;5117369;28;20669;-88
2023/05/10 06:03:10;;;;;;;3.30;3.00;;;14.20;99.90;;;;;;5118807;28;20196;-88
2023/05/10 06:05:36;;;;;;;5.40;2.90;;;14.20;99.90;;;;;;5119290;28;20229;-90
2023/05/10 06:08:01;;;;;;;2.97;2.77;;;14.20;99.90;;;;;;5114826;28;20670;-89
2023/05/10 06:10:27;;;;;;;3.37;2.80;;;14.30;99.90;;;;;;5105199;28;20643;-89
2023/05/10 06:12:52;;;;;;;3.03;2.70;;;14.30;99.90;;;;;;5098660;28;20342;-90
2023/05/10 06:15:18;;;;;;;2.90;2.70;;;14.30;99.90;;;;;;5098176;28;20194;-89
2023/05/10 06:17:44;;;;;;;4.73;3.53;;;14.30;99.90;;;;;;5098223;28;20179;-90
2023/05/10 06:20:10;;;;;;;3.07;2.87;;;14.30;99.90;;;;;;5097371;28;20188;-90
2023/05/10 06:22:36;;;;;;;2.93;2.73;;;14.40;99.90;;;;;;5097557;28;20241;-89
2023/05/10 06:25:02;;;;;;;3.60;3.13;;;14.40;99.90;;;;;;5097026;28;20217;-90
2023/05/10 06:27:28;;;;;;;3.37;3.07;;;14.40;99.90;;;;;;5098334;28;20186;-91
2023/05/10 06:29:53;;;;;;;3.00;2.80;;;14.50;99.90;;;;;;5097059;28;20183;-90
2023/05/10 06:32:19;;;;;;;2.83;2.63;;;14.50;99.90;;;;;;5096917;28;20195;-89
2023/05/10 06:34:45;;;;;;;3.10;2.90;;;14.50;99.90;;;;;;5097407;28;20208;-90
2023/05/10 06:37:10;;;;;;;3.10;2.90;;;14.50;99.90;;;;;;5107706;28;20188;-90
2023/05/10 06:39:36;;;;;;;3.23;2.83;;;14.60;99.90;;;;;;5108132;28;20233;-88
2023/05/10 06:42:02;;;;;;;2.73;2.53;;;14.60;99.90;;;;;;5107854;28;20191;-89
2023/05/10 06:44:28;;;;;;;2.93;2.73;;;14.60;99.90;;;;;;5105800;28;20297;-88
2023/05/10 06:46:55;;;;;;;2.87;2.67;;;14.60;99.90;;;;;;5110899;28;20191;-90
2023/05/10 06:49:24;;;;;;;3.00;2.80;;;14.70;99.90;;;;;;5105110;28;20549;-89
2023/05/10 06:51:49;;;;;;;3.47;3.17;;;14.80;99.90;;;;;;5098142;28;20247;-89
2023/05/10 06:54:15;;;;;;;3.00;2.80;;;14.80;99.90;;;;;;5114621;28;20261;-89
2023/05/10 06:56:40;;;;;;;3.17;2.90;;;14.80;99.90;;;;;;5120517;28;20190;-88
2023/05/10 06:59:07;;;;;;;3.53;3.33;;;15.00;99.90;;;;;;5122231;28;20167;-94
2023/05/10 07:01:32;;;;;;;3.40;3.10;;;15.00;99.90;;;;;;5104484;28;20189;-88
2023/05/10 07:03:58;;;;;;;3.33;3.03;;;15.00;99.90;;;;;;5104868;28;20210;-89
2023/05/10 07:06:23;;;;;;;5.40;2.77;;;15.00;99.90;;;;;;5103432;28;20197;-90
2023/05/10 07:08:49;;;;;;;3.83;2.23;;;15.10;99.90;;;;;;5108430;28;20181;-88
2023/05/10 07:11:15;;;;;;;2.73;2.53;;;15.10;99.90;;;;;;5107906;28;20229;-91
2023/05/10 07:13:43;;;;;;;2.50;2.30;;;15.20;99.90;;;;;;5108474;28;20190;-86
2023/05/10 07:16:10;;;;;;;2.40;2.27;;;15.00;99.90;;;;;;5105646;28;20223;-89
2023/05/10 07:18:35;;;;;;;2.27;2.00;;;15.00;99.90;;;;;;5106551;28;20547;-90
2023/05/10 07:21:01;;;;;;;2.03;1.93;;;15.00;99.90;;;;;;5109138;28;20177;-89
2023/05/10 07:23:27;;;;;;;2.50;2.30;;;15.10;99.90;;;;;;5108246;28;20310;-89
2023/05/10 07:25:53;;;;;;;2.10;2.00;;;15.10;99.90;;;;;;5108494;28;20732;-87
2023/05/10 07:28:19;;;;;;;2.63;2.37;;;15.20;99.90;;;;;;5108858;28;20215;-89
2023/05/10 07:30:45;;;;;;;2.63;2.00;;;15.10;99.90;;;;;;5102282;28;20180;-88
2023/05/10 07:33:13;;;;;;;2.17;2.00;;;15.00;99.90;;;;;;5102325;28;20210;-90
2023/05/10 07:35:39;;;;;;;2.00;1.90;;;15.10;99.90;;;;;;5101048;28;20248;-89
2023/05/10 07:38:05;;;;;;;2.83;2.33;;;15.10;99.90;;;;;;5101884;28;20278;-90
2023/05/10 07:40:31;;;;;;;2.40;2.20;;;15.20;99.90;;;;;;5109152;28;20446;-91
2023/05/10 07:42:57;;;;;;;3.90;2.00;;;15.20;99.90;;;;;;5109573;28;20291;-85
2023/05/10 07:45:23;;;;;;;2.20;2.00;;;15.50;99.90;;;;;;5106596;28;20219;-87
2023/05/10 07:47:49;;;;;;;3.83;2.13;;;15.50;98.60;;;;;;5106416;28;20780;-85
2023/05/10 07:50:15;;;;;;;3.50;2.50;;;15.40;97.80;;;;;;5106248;28;20211;-85
2023/05/10 07:52:41;;;;;;;1.97;1.87;;;15.50;99.90;;;;;;5103779;28;20201;-85
2023/05/10 07:55:08;;;;;;;2.73;2.10;;;15.70;98.20;;;;;;5108291;28;20196;-87
2023/05/10 07:57:34;;;;;;;2.47;2.10;;;15.60;97.90;;;;;;5104878;28;20567;-89
2023/05/10 07:59:59;;;;;;;2.20;2.10;;;15.40;98.20;;;;;;5100946;28;20775;-85
2023/05/10 08:02:25;;;;;;;2.83;2.10;;;15.50;99.90;;;;;;5104870;28;20233;-84
2023/05/10 08:04:51;;;;;;;9.13;3.23;;;15.50;99.90;;;;;;5109230;28;20626;-82
2023/05/10 08:07:17;;;;;;;5.47;2.60;;;15.40;99.90;;;;;;5106895;28;20195;-83
2023/05/10 08:09:42;;;;;;;2.30;2.20;;;15.50;99.90;;;;;;5106614;28;20244;-85
2023/05/10 08:12:08;;;;;;;139.50;15.37;;;15.70;99.90;;;;;;5104897;28;20189;-88
2023/05/10 08:14:34;;;;;;;15.00;3.07;;;15.90;99.90;;;;;;5103052;28;20197;-84
2023/05/10 08:17:00;;;;;;;3.97;2.07;;;16.10;94.40;;;;;;5103570;28;20186;-85
2023/05/10 08:19:25;;;;;;;4.40;2.27;;;15.90;94.80;;;;;;5105808;28;20191;-83
2023/05/10 08:21:53;;;;;;;21.97;4.70;;;16.10;93.40;;;;;;5108779;28;20186;-86
2023/05/10 08:24:19;;;;;;;2.00;1.90;;;16.10;92.70;;;;;;5107005;28;20213;-86
2023/05/10 08:26:44;;;;;;;9.20;2.67;;;16.10;94.60;;;;;;5105683;28;20225;-84
2023/05/10 08:29:10;;;;;;;4.43;2.30;;;16.20;93.80;;;;;;5107172;28;20274;-83
2023/05/10 08:31:35;;;;;;;3.33;1.93;;;16.20;92.00;;;;;;5115565;28;20189;-87
2023/05/10 08:34:01;;;;;;;35.60;4.43;;;16.30;93.20;;;;;;5099280;28;20193;-86
2023/05/10 08:36:27;;;;;;;2.00;1.80;;;16.30;90.50;;;;;;5095136;28;20662;-84
2023/05/10 08:38:53;;;;;;;2.67;2.10;;;16.20;92.70;;;;;;5096200;28;20175;-85
2023/05/10 08:41:26;;;;;;;1.93;1.83;;;16.10;93.80;;;;;;5096365;28;20175;-85
2023/05/10 08:43:54;;;;;;;5.30;2.43;;;16.40;89.90;;;;;;5097272;28;20208;-87
2023/05/10 08:46:22;;;;;;;11.53;3.63;;;16.40;87.80;;;;;;5095434;28;20232;-86
2023/05/10 08:48:50;;;;;;;8.80;2.60;;;16.40;86.90;;;;;;5097611;28;20191;-82
2023/05/10 08:51:26;;;;;;;2.00;1.90;;;16.80;88.90;;;;;;5097564;28;20197;-85
2023/05/10 08:53:52;;;;;;;2.97;1.80;;;16.90;88.50;;;;;;5097302;28;20193;-84
2023/05/10 08:56:18;;;;;;;4.53;2.17;;;16.80;87.30;;;;;;5099302;28;20191;-85
2023/05/10 08:58:44;;;;;;;3.50;2.00;;;16.80;88.00;;;;;;5110022;28;20171;-84
2023/05/10 09:01:10;;;;;;;2.00;1.90;;;16.70;87.20;;;;;;5103997;28;20183;-83
2023/05/10 09:03:38;;;;;;;4.03;2.50;;;16.70;86.60;;;;;;5099453;28;20213;-82
2023/05/10 09:06:04;;;;;;;2.40;2.20;;;16.70;84.80;;;;;;5100934;28;20297;-84
2023/05/10 09:08:31;;;;;;;2.10;1.90;;;16.80;85.60;;;;;;5099155;28;20187;-84
2023/05/10 09:10:56;;;;;;;24.60;4.80;;;16.90;86.90;;;;;;5100433;28;20176;-85
2023/05/10 09:13:23;;;;;;;3.00;2.10;;;16.70;83.80;;;;;;5103629;28;20183;-82
2023/05/10 09:15:50;;;;;;;4.60;2.00;;;16.20;81.50;;;;;;5104302;28;20186;-84
2023/05/10 09:18:15;;;;;;;5.73;2.33;;;16.00;83.00;;;;;;5104757;28;20176;-85
2023/05/10 09:20:41;;;;;;;2.00;1.90;;;16.10;84.60;;;;;;5107925;28;20222;-84
2023/05/10 09:23:07;;;;;;;2.27;1.90;;;16.30;83.30;;;;;;5105453;28;20643;-86
2023/05/10 09:25:33;;;;;;;2.00;1.90;;;16.10;84.20;;;;;;5113143;28;20253;-83
2023/05/10 09:27:59;;;;;;;11.00;2.20;;;16.00;89.20;;;;;;5109337;28;20179;-82
2023/05/10 09:30:31;;;;;;;2.13;1.93;;;16.00;86.00;;;;;;5109496;28;20744;-83
2023/05/10 09:32:58;;;;;;;2.10;1.70;;;16.20;87.90;;;;;;5112058;28;20211;-85
2023/05/10 09:35:26;;;;;;;40.70;5.43;;;16.30;82.90;;;;;;5116214;28;20637;-85
2023/05/10 09:37:54;;;;;;;1.90;1.80;;;16.50;82.10;;;;;;5118717;27;20187;-82
2023/05/10 09:40:22;;;;;;;5.10;2.40;;;16.50;79.70;;;;;;5116453;28;20270;-81
2023/05/10 09:42:57;;;;;;;1.97;1.83;;;16.80;80.20;;;;;;5122233;28;20194;-86
2023/05/10 09:45:24;;;;;;;2.40;2.20;;;17.00;78.00;;;;;;5104244;28;20249;-81
2023/05/10 09:47:50;;;;;;;3.00;2.03;;;17.20;77.80;;;;;;5100023;28;20174;-88
2023/05/10 09:50:16;;;;;;;12.43;3.40;;;17.20;78.20;;;;;;5099219;28;20326;-83
2023/05/10 09:52:54;;;;;;;3.83;2.47;;;17.30;77.60;;;;;;5100386;28;21026;-86
2023/05/10 09:55:24;;;;;;;4.20;2.33;;;17.70;76.40;;;;;;5109672;28;20190;-84
2023/05/10 09:58:00;;;;;;;5.43;2.37;;;17.80;74.30;;;;;;5100981;28;20649;-85
2023/05/10 10:00:27;;;;;;;2.87;2.20;;;18.00;72.50;;;;;;5098865;28;20168;-84
2023/05/10 10:03:00;;;;;;;18.60;4.30;;;18.30;69.80;;;;;;5102691;28;20229;-83
2023/05/10 10:05:33;;;;;;;12.17;4.20;;;18.20;68.60;;;;;;5121922;28;20224;-83
2023/05/10 10:07:59;;;;;;;28.23;4.43;;;18.10;70.70;;;;;;5102332;28;20246;-85
2023/05/10 10:10:26;;;;;;;3.50;2.23;;;17.90;70.00;;;;;;5105243;28;20169;-84
2023/05/10 10:12:53;;;;;;;2.47;2.27;;;17.90;71.40;;;;;;5119958;28;20201;-81
2023/05/10 10:15:20;;;;;;;12.10;3.03;;;18.20;72.00;;;;;;5119902;28;20190;-83
2023/05/10 10:17:47;;;;;;;6.73;2.77;;;18.00;72.60;;;;;;5120014;28;20262;-85
2023/05/10 10:20:14;;;;;;;24.97;6.03;;;18.10;73.10;;;;;;5109842;28;20788;-82
2023/05/10 10:22:39;;;;;;;4.23;2.73;;;18.10;70.80;;;;;;5101147;28;20208;-87
2023/05/10 10:25:06;;;;;;;3.30;2.60;;;18.00;70.10;;;;;;5100467;28;20568;-85
2023/05/10 10:27:53;;;;;;;3.83;2.80;;;17.70;73.60;;;;;;5100487;28;20185;-87
2023/05/10 10:30:43;;;;;;;2.70;2.60;;;17.80;72.00;;;;;;5102282;28;20175;-85
2023/05/10 10:33:17;;;;;;;4.43;3.17;;;17.60;73.30;;;;;;5109514;28;20191;-84
2023/05/10 10:35:45;;;;;;;3.13;2.80;;;17.70;74.80;;;;;;5112745;28;20512;-83
2023/05/10 10:38:12;;;;;;;4.77;3.20;;;18.00;72.80;;;;;;5109724;28;20209;-82
2023/05/10 10:40:39;;;;;;;3.80;3.40;;;18.10;71.30;;;;;;5100673;28;20661;-85
2023/05/10 10:43:25;;;;;;;4.23;3.63;;;18.20;70.10;;;;;;5106317;28;20271;-84
2023/05/10 10:46:17;;;;;;;2.90;2.70;;;18.20;66.80;;;;;;5100439;28;20209;-85
2023/05/10 10:49:17;;;;;;;4.80;3.30;;;18.20;70.70;;;;;;5099145;28;20200;-87
2023/05/10 10:52:21;;;;;;;3.33;3.03;;;18.00;68.90;;;;;;5098137;28;20197;-85
2023/05/10 10:55:14;;;;;;;3.97;3.03;;;17.80;66.80;;;;;;5109940;28;20247;-84
2023/05/10 10:57:51;;;;;;;3.63;3.17;;;17.80;69.80;;;;;;5106601;28;20187;-83
2023/05/10 11:00:28;;;;;;;3.43;3.07;;;18.00;68.30;;;;;;5112751;28;20185;-83
2023/05/10 11:03:04;;;;;;;3.75;3.17;;;18.10;69.10;;;;;;5100699;28;20207;-86
2023/05/10 11:05:32;;;;;;;3.58;3.03;;;18.30;67.60;;;;;;5101607;28;20208;-84
2023/05/10 11:08:00;;;;;;;4.07;3.00;;;18.00;67.40;;;;;;5101028;28;20179;-85
2023/05/10 11:10:27;;;;;;;4.57;2.97;;;17.80;67.00;;;;;;5112651;28;20189;-84
2023/05/10 11:13:00;;;;;;;4.15;2.88;;;17.70;68.60;;;;;;5122727;28;20276;-85
2023/05/10 11:15:34;;;;;;;34.47;7.43;;;17.70;67.60;;;;;;5120991;28;20207;-85
2023/05/10 11:18:16;;;;;;;10.80;3.57;;;17.80;68.10;;;;;;5101322;28;20200;-88
2023/05/10 11:20:42;;;;;;;3.70;2.70;;;18.00;68.80;;;;;;5114863;28;20179;-88
2023/05/10 11:23:12;;;;;;;21.90;4.70;;;17.80;68.40;;;;;;5125993;28;20211;-87
2023/05/10 11:25:45;;;;;;;2.40;2.03;;;17.50;62.80;;;;;;5118854;28;20245;-85
2023/05/10 11:28:12;;;;;;;3.80;2.30;;;17.50;63.60;;;;;;5118175;28;20662;-87
2023/05/10 11:30:39;;;;;;;3.87;2.33;;;17.50;64.40;;;;;;5114074;28;20190;-85
2023/05/10 11:33:06;;;;;;;4.40;2.23;;;17.30;64.60;;;;;;5119858;28;20205;-89
2023/05/10 11:35:40;;;;;;;2.20;2.00;;;17.50;63.70;;;;;;5117615;28;20239;-92
2023/05/10 11:38:10;;;;;;;2.00;1.90;;;17.40;65.10;;;;;;5118447;28;20174;-88
2023/05/10 11:40:36;;;;;;;2.13;1.80;;;17.60;60.30;;;;;;5118214;27;20172;-92
2023/05/10 11:43:03;;;;;;;2.07;1.87;;;17.80;61.50;;;;;;5126333;28;20208;-92
2023/05/10 11:45:31;;;;;;;2.10;1.90;;;17.80;59.30;;;;;;5123719;28;20205;-92
2023/05/10 11:47:58;;;;;;;4.77;2.00;;;17.60;60.20;;;;;;5118664;28;20184;-93
2023/05/10 11:50:25;;;;;;;2.90;2.07;;;17.60;61.80;;;;;;5114244;28;20155;-92
2023/05/10 11:52:55;;;;;;;3.67;2.10;;;17.50;61.70;;;;;;5115645;28;20191;-94
2023/05/10 11:55:21;;;;;;;2.33;2.00;;;17.80;61.40;;;;;;5115441;28;20161;-92
2023/05/10 11:57:47;;;;;;;2.50;2.30;;;18.10;60.50;;;;;;5115637;28;20194;-92
2023/05/10 12:00:14;;;;;;;2.83;2.28;;;18.20;58.30;;;;;;5115688;28;20191;-93
2023/05/10 12:02:40;;;;;;;3.90;2.35;;;18.40;61.90;;;;;;5112025;28;20200;-91
2023/05/10 12:05:07;;;;;;;2.88;2.20;;;18.30;59.60;;;;;;5103224;28;20226;-91
2023/05/10 12:07:32;;;;;;;3.15;2.33;;;18.80;57.40;;;;;;5102665;28;20171;-90
2023/05/10 12:10:08;;;;;;;2.40;2.30;;;19.40;57.00;;;;;;5100701;28;20178;-93
2023/05/10 12:12:41;;;;;;;2.42;2.22;;;20.10;56.10;;;;;;5100725;28;20189;-91
2023/05/10 12:15:12;;;;;;;2.45;2.33;;;20.10;54.00;;;;;;5122274;28;20221;-92
2023/05/10 12:17:41;;;;;;;2.20;2.10;;;19.90;52.70;;;;;;5124472;28;20185;-91
2023/05/10 12:20:26;;;;;;;2.50;2.30;;;19.80;51.50;;;;;;5121621;28;20209;-92
2023/05/10 12:22:58;;;;;;;2.25;2.15;;;19.50;51.40;;;;;;5120872;28;20724;-92
2023/05/10 12:25:30;;;;;;;2.50;2.20;;;19.50;52.10;;;;;;5121511;28;20202;-92
2023/05/10 12:27:58;;;;;;;2.33;2.10;;;19.50;51.80;;;;;;5121258;28;20169;-92
2023/05/10 12:30:28;;;;;;;2.45;2.25;;;19.00;52.30;;;;;;5121080;28;20170;-92
2023/05/10 12:32:59;;;;;;;2.60;2.40;;;19.00;53.80;;;;;;5124688;28;20256;-93
2023/05/10 12:35:25;;;;;;;2.65;2.30;;;19.10;50.80;;;;;;5108769;28;20271;-93
2023/05/10 12:37:51;;;;;;;3.13;2.80;;;19.10;54.60;;;;;;5125094;28;20493;-92
2023/05/10 12:40:17;;;;;;;2.65;2.45;;;19.40;53.90;;;;;;5124171;27;20185;-91
2023/05/10 12:42:44;;;;;;;4.63;2.67;;;19.50;53.10;;;;;;5116319;28;20205;-92
2023/05/10 12:45:11;;;;;;;3.33;2.83;;;19.50;51.40;;;;;;5109344;28;20217;-92
2023/05/10 12:47:37;;;;;;;2.65;2.45;;;19.70;53.80;;;;;;5103469;28;20171;-86
2023/05/10 12:50:04;;;;;;;2.95;2.60;;;19.80;50.00;;;;;;5102929;28;20255;-89
2023/05/10 12:52:34;;;;;;;2.85;2.60;;;20.00;49.10;;;;;;5106152;28;20187;-93